createdAt,value
2023-03-29T00:02:08.971Z,101319.50
2023-03-29T00:06:15.067Z,101329.97
2023-03-29T00:10:18.608Z,101322.97
2023-03-29T00:14:18.014Z,101322.16
2023-03-29T00:18:18.915Z,101317.75
2023-03-29T00:22:21.171Z,101328.13
2023-03-29T00:26:20.743Z,101321.38
2023-03-29T00:30:25.980Z,101325.84
2023-03-29T00:34:30.571Z,101318.78
2023-03-29T00:38:31.858Z,101324.63
2023-03-29T00:42:31.450Z,101334.13
2023-03-29T00:46:34.836Z,101333.97
2023-03-29T00:50:40.449Z,101337.31
2023-03-29T00:54:43.040Z,101334.81
2023-03-29T00:58:46.002Z,101338.84
2023-03-29T01:02:50.839Z,101326.03
2023-03-29T01:06:55.208Z,101339.53
2023-03-29T01:11:03.946Z,101347.19
2023-03-29T01:15:14.359Z,101338.50
2023-03-29T01:19:15.919Z,101342.00
2023-03-29T01:23:32.035Z,101346.97
2023-03-29T01:27:50.426Z,101342.47
2023-03-29T01:31:52.964Z,101343.34
2023-03-29T01:36:02.726Z,101341.25
2023-03-29T01:40:04.714Z,101335.19
2023-03-29T01:44:08.122Z,101338.97
2023-03-29T01:48:13.186Z,101343.25
2023-03-29T01:52:16.938Z,101338.38
2023-03-29T01:56:20.452Z,101341.84
2023-03-29T02:00:27.325Z,101339.44
2023-03-29T02:04:29.664Z,101345.56
2023-03-29T02:08:30.876Z,101350.13
2023-03-29T02:12:30.833Z,101352.47
2023-03-29T02:16:36.554Z,101356.16
2023-03-29T02:20:38.999Z,101353.69
2023-03-29T02:24:39.344Z,101344.53
2023-03-29T02:28:38.981Z,101369.00
2023-03-29T02:32:48.676Z,101363.69
2023-03-29T02:36:50.309Z,101372.72
2023-03-29T02:40:49.402Z,101377.09
2023-03-29T02:44:51.603Z,101385.34
2023-03-29T02:48:54.346Z,101377.69
2023-03-29T02:52:55.965Z,101372.91
2023-03-29T02:56:58.036Z,101379.91
2023-03-29T03:00:58.644Z,101385.50
2023-03-29T03:04:59.622Z,101397.84
2023-03-29T03:08:59.995Z,101404.16
2023-03-29T03:13:02.802Z,101422.75
2023-03-29T03:17:04.552Z,101426.50
2023-03-29T03:21:07.011Z,101439.38
2023-03-29T03:25:06.836Z,101437.06
2023-03-29T03:29:05.926Z,101443.59
2023-03-29T03:33:06.722Z,101445.41
2023-03-29T03:37:10.546Z,101442.66
2023-03-29T03:41:11.106Z,101457.78
2023-03-29T03:45:40.586Z,101452.56
2023-03-29T04:00:55.348Z,101476.97
2023-03-29T04:05:55.708Z,101488.75
2023-03-29T04:13:35.558Z,101495.03
2023-03-29T04:16:25.674Z,101508.59
2023-03-29T04:31:56.400Z,101522.75
2023-03-29T04:36:26.439Z,101529.63
2023-03-29T04:40:34.755Z,101533.91
2023-03-29T04:44:43.511Z,101539.50
2023-03-29T04:49:15.414Z,101537.59
2023-03-29T04:57:34.320Z,101556.63
2023-03-29T05:02:04.823Z,101561.06
2023-03-29T05:06:06.873Z,101563.34
2023-03-29T05:10:12.059Z,101563.34
2023-03-29T05:14:20.796Z,101579.75
2023-03-29T05:18:25.069Z,101584.63
2023-03-29T05:22:24.755Z,101591.13
2023-03-29T05:26:51.719Z,101595.78
2023-03-29T05:31:04.598Z,101594.41
2023-03-29T05:35:20.709Z,101606.13
2023-03-29T05:39:39.461Z,101605.06
2023-03-29T05:44:02.768Z,101602.75
2023-03-29T05:48:03.581Z,101599.91
2023-03-29T05:52:14.495Z,101602.41
2023-03-29T05:56:19.558Z,101605.50
2023-03-29T06:00:40.668Z,101604.44
2023-03-29T06:04:45.647Z,101605.41
2023-03-29T06:09:07.967Z,101609.22
2023-03-29T06:13:26.995Z,101617.78
2023-03-29T06:17:31.472Z,101611.06
2023-03-29T06:21:41.244Z,101625.94
2023-03-29T06:25:41.614Z,101619.25
2023-03-29T06:29:41.645Z,101618.25
2023-03-29T06:33:43.875Z,101614.56
2023-03-29T06:37:49.255Z,101619.16
2023-03-29T06:41:50.873Z,101616.78
2023-03-29T06:45:53.474Z,101618.16
2023-03-29T06:49:55.938Z,101617.00
2023-03-29T06:53:56.581Z,101615.97
2023-03-29T06:58:00.246Z,101613.31
2023-03-29T07:02:02.501Z,101614.75
2023-03-29T07:06:09.988Z,101613.38
2023-03-29T07:10:12.665Z,101617.50
2023-03-29T07:14:20.515Z,101612.53
2023-03-29T07:22:45.440Z,101611.97
2023-03-29T07:27:00.063Z,101611.34
2023-03-29T07:31:09.455Z,101618.78
2023-03-29T07:35:11.943Z,101621.13
2023-03-29T07:39:15.420Z,101608.00
2023-03-29T07:43:25.331Z,101606.66
2023-03-29T07:47:32.110Z,101606.94
2023-03-29T07:51:39.810Z,101610.72
2023-03-29T07:55:59.890Z,101604.34
2023-03-29T08:00:18.707Z,101602.25
2023-03-29T08:04:23.816Z,101613.97
2023-03-29T08:08:40.835Z,101618.44
2023-03-29T08:12:44.546Z,101601.75
2023-03-29T08:16:47.471Z,101591.31
2023-03-29T08:20:50.083Z,101584.34
2023-03-29T08:24:49.299Z,101592.03
2023-03-29T08:28:51.882Z,101591.06
2023-03-29T08:32:55.183Z,101580.06
2023-03-29T08:36:57.783Z,101586.97
2023-03-29T08:40:58.583Z,101586.34
2023-03-29T08:45:17.866Z,101583.84
2023-03-29T08:49:23.530Z,101576.34
2023-03-29T08:53:26.666Z,101575.94
2023-03-29T08:57:32.718Z,101570.13
2023-03-29T09:01:41.858Z,101570.75
2023-03-29T09:05:46.762Z,101572.41
2023-03-29T09:09:47.835Z,101579.22
2023-03-29T09:13:57.622Z,101569.03
2023-03-29T09:18:15.562Z,101573.75
2023-03-29T09:22:22.252Z,101577.00
2023-03-29T09:26:25.701Z,101587.06
2023-03-29T09:30:28.748Z,101584.75
2023-03-29T09:34:32.971Z,101599.44
2023-03-29T09:38:33.879Z,101605.81
2023-03-29T09:42:33.252Z,101622.38
2023-03-29T09:46:39.732Z,101608.88
2023-03-29T09:50:42.860Z,101614.31
2023-03-29T09:54:44.832Z,101628.13
2023-03-29T09:58:49.095Z,101641.81
2023-03-29T10:02:52.785Z,101658.50
2023-03-29T10:06:56.541Z,101635.47
2023-03-29T10:10:58.659Z,101624.16
2023-03-29T10:14:58.382Z,101634.31
2023-03-29T10:19:09.752Z,101632.84
2023-03-29T10:23:20.532Z,101623.47
2023-03-29T10:27:30.733Z,101613.66
2023-03-29T10:31:43.066Z,101615.22
2023-03-29T10:35:52.775Z,101622.25
2023-03-29T10:40:01.923Z,101627.41
2023-03-29T10:44:04.536Z,101632.09
2023-03-29T10:48:06.677Z,101610.47
2023-03-29T10:52:08.938Z,101616.94
2023-03-29T10:56:24.914Z,101616.13
2023-03-29T11:00:30.790Z,101602.19
2023-03-29T11:04:38.071Z,101602.78
2023-03-29T11:08:45.390Z,101596.91
2023-03-29T11:13:01.355Z,101587.94
2023-03-29T11:17:11.933Z,101584.91
2023-03-29T11:21:16.505Z,101578.00
2023-03-29T11:25:39.964Z,101573.03
2023-03-29T11:29:47.719Z,101571.53
2023-03-29T11:33:59.469Z,101568.38
2023-03-29T11:38:07.028Z,101569.88
2023-03-29T11:42:11.200Z,101572.75
2023-03-29T11:46:24.383Z,101567.59
2023-03-29T11:50:27.637Z,101571.88
2023-03-29T11:54:29.911Z,101576.09
2023-03-29T11:58:38.853Z,101565.34
2023-03-29T12:02:44.851Z,101564.78
2023-03-29T12:06:48.940Z,101550.09
2023-03-29T12:10:51.738Z,101555.53
2023-03-29T12:14:55.914Z,101557.81
2023-03-29T12:18:58.241Z,101568.53
2023-03-29T12:23:00.749Z,101565.56
2023-03-29T12:27:21.468Z,101564.63
2023-03-29T12:31:25.258Z,101581.63
2023-03-29T12:35:39.268Z,101577.41
2023-03-29T12:39:47.209Z,101578.50
2023-03-29T12:43:54.947Z,101575.09
2023-03-29T12:48:07.526Z,101569.56
2023-03-29T12:52:41.949Z,101575.09
2023-03-29T12:57:04.303Z,101570.38
2023-03-29T13:01:10.891Z,101563.91
2023-03-29T13:05:45.757Z,101573.09
2023-03-29T13:09:58.813Z,101557.09
2023-03-29T13:14:14.973Z,101567.41
2023-03-29T13:18:36.747Z,101566.19
2023-03-29T13:22:47.691Z,101560.72
2023-03-29T13:26:59.400Z,101560.78
2023-03-29T13:31:38.274Z,101559.25
2023-03-29T13:40:29.412Z,101561.66
2023-03-29T13:44:43.340Z,101553.31
2023-03-29T13:49:00.175Z,101564.41
2023-03-29T13:53:03.694Z,101566.84
2023-03-29T13:57:35.003Z,101568.06
2023-03-29T14:01:46.072Z,101558.63
2023-03-29T14:10:50.001Z,101563.22
2023-03-29T14:15:00.491Z,101572.81
2023-03-29T14:19:08.210Z,101566.72
2023-03-29T14:23:29.748Z,101567.00
2023-03-29T14:27:45.640Z,101569.03
2023-03-29T14:31:58.833Z,101579.13
2023-03-29T14:48:05.929Z,101583.63
2023-03-29T15:03:50.392Z,101591.28
2023-03-29T15:07:56.012Z,101587.00
2023-03-29T15:11:58.451Z,101598.97
2023-03-29T15:16:01.829Z,101589.88
2023-03-29T15:20:04.034Z,101602.94
2023-03-29T15:24:06.471Z,101599.66
2023-03-29T15:28:06.492Z,101596.66
2023-03-29T15:32:18.400Z,101601.81
2023-03-29T15:36:20.996Z,101607.38
2023-03-29T15:40:24.790Z,101606.69
2023-03-29T15:44:26.613Z,101603.13
2023-03-29T15:48:29.733Z,101602.25
2023-03-29T15:52:28.789Z,101609.91
2023-03-29T15:56:32.000Z,101612.84
2023-03-29T16:00:35.001Z,101611.81
2023-03-29T16:04:34.676Z,101608.94
2023-03-29T16:08:40.934Z,101623.38
2023-03-29T16:12:43.011Z,101627.59
2023-03-29T16:16:49.250Z,101637.00
2023-03-29T16:20:53.797Z,101644.38
2023-03-29T16:24:56.233Z,101646.59
2023-03-29T16:28:58.161Z,101652.25
2023-03-29T16:33:06.359Z,101657.28
2023-03-29T16:37:05.956Z,101661.09
2023-03-29T16:41:06.160Z,101663.22
2023-03-29T16:45:08.929Z,101673.00
2023-03-29T16:49:08.921Z,101671.41
2023-03-29T16:53:08.050Z,101676.72
2023-03-29T16:57:08.295Z,101684.53
2023-03-29T17:01:14.647Z,101683.16
2023-03-29T17:05:14.896Z,101685.53
2023-03-29T17:09:17.468Z,101697.03
2023-03-29T17:13:17.273Z,101700.94
2023-03-29T17:17:19.036Z,101714.81
2023-03-29T17:21:18.869Z,101721.97
2023-03-29T17:25:17.871Z,101739.00
2023-03-29T17:29:19.871Z,101765.09
2023-03-29T17:33:26.107Z,101770.50
2023-03-29T17:37:27.584Z,101781.41
2023-03-29T17:41:28.570Z,101793.84
2023-03-29T17:45:29.451Z,101811.56
2023-03-29T17:49:31.667Z,101819.63
2023-03-29T17:53:30.860Z,101824.41
2023-03-29T17:57:43.252Z,101825.72
2023-03-29T18:01:42.939Z,101839.72
2023-03-29T18:05:44.787Z,101852.28
2023-03-29T18:09:44.529Z,101857.31
2023-03-29T18:13:44.669Z,101857.56
2023-03-29T18:17:44.459Z,101857.34
2023-03-29T18:21:46.425Z,101857.78
2023-03-29T18:25:46.030Z,101859.16
2023-03-29T18:29:46.233Z,101861.03
2023-03-29T18:33:46.598Z,101861.66
2023-03-29T18:37:48.613Z,101857.34
2023-03-29T18:41:47.735Z,101860.44
2023-03-29T18:45:48.158Z,101860.84
2023-03-29T18:49:47.862Z,101851.72
2023-03-29T18:53:50.591Z,101864.91
2023-03-29T18:57:50.585Z,101855.00
2023-03-29T19:01:51.521Z,101858.19
2023-03-29T19:05:55.391Z,101856.88
2023-03-29T19:09:58.749Z,101872.34
2023-03-29T19:13:58.576Z,101859.16
2023-03-29T19:17:58.572Z,101875.00
2023-03-29T19:22:01.664Z,101866.03
2023-03-29T19:26:05.169Z,101865.44
2023-03-29T19:30:05.801Z,101878.94
2023-03-29T19:34:07.795Z,101875.31
2023-03-29T19:38:07.558Z,101874.56
2023-03-29T19:42:09.355Z,101885.22
2023-03-29T19:46:10.270Z,101882.19
2023-03-29T19:50:12.143Z,101886.53
2023-03-29T19:54:12.524Z,101885.28
2023-03-29T19:58:15.154Z,101889.44
2023-03-29T20:02:15.023Z,101887.47
2023-03-29T20:06:14.824Z,101887.50
2023-03-29T20:10:14.433Z,101891.69
2023-03-29T20:14:16.512Z,101895.41
2023-03-29T20:18:20.411Z,101898.06
2023-03-29T20:22:20.086Z,101893.00
2023-03-29T20:26:22.736Z,101894.94
2023-03-29T20:30:24.248Z,101885.25
2023-03-29T20:34:24.177Z,101897.25
2023-03-29T20:38:23.862Z,101896.13
2023-03-29T20:42:29.361Z,101891.66
2023-03-29T20:46:35.038Z,101898.88
2023-03-29T20:50:37.984Z,101888.22
2023-03-29T20:54:40.436Z,101886.19
2023-03-29T20:58:41.976Z,101887.69
2023-03-29T21:02:44.041Z,101886.69
2023-03-29T21:06:45.471Z,101888.66
2023-03-29T21:10:47.633Z,101880.84
2023-03-29T21:14:47.329Z,101880.22
2023-03-29T21:18:49.460Z,101887.00
2023-03-29T21:22:55.518Z,101891.72
2023-03-29T21:26:58.134Z,101888.53
2023-03-29T21:30:57.883Z,101896.81
2023-03-29T21:35:00.175Z,101894.06
2023-03-29T21:39:00.009Z,101897.53
2023-03-29T21:42:59.683Z,101898.31
2023-03-29T21:46:59.419Z,101894.94
2023-03-29T21:51:01.401Z,101891.03
2023-03-29T21:55:00.676Z,101889.22
2023-03-29T21:59:00.602Z,101888.00
2023-03-29T22:03:09.245Z,101897.84
2023-03-29T22:07:11.208Z,101901.84
2023-03-29T22:11:13.587Z,101910.78
2023-03-29T22:15:14.799Z,101902.66
2023-03-29T22:19:14.815Z,101901.84
2023-03-29T22:23:16.586Z,101900.03
2023-03-29T22:27:15.721Z,101895.50
2023-03-29T22:31:16.170Z,101896.69
2023-03-29T22:35:15.655Z,101895.88
2023-03-29T22:39:17.393Z,101901.56
2023-03-29T22:43:16.971Z,101898.25
2023-03-29T22:47:19.968Z,101899.56
2023-03-29T22:51:19.780Z,101901.34
2023-03-29T22:55:21.942Z,101908.19
2023-03-29T22:59:21.812Z,101914.34
2023-03-29T23:03:23.011Z,101918.81
2023-03-29T23:07:22.727Z,101925.63
2023-03-29T23:11:24.635Z,101919.38
2023-03-29T23:15:26.257Z,101923.66
2023-03-29T23:19:26.848Z,101923.34
2023-03-29T23:23:27.088Z,101922.56
2023-03-29T23:27:32.505Z,101928.59
2023-03-29T23:31:33.452Z,101929.44
2023-03-29T23:35:33.552Z,101922.38
2023-03-29T23:39:33.514Z,101921.88
2023-03-29T23:43:37.047Z,101917.22
2023-03-29T23:47:39.821Z,101920.34
2023-03-29T23:51:39.396Z,101919.53
2023-03-29T23:55:38.950Z,101916.16
2023-03-29T23:59:40.986Z,101920.94
